Time;durP1;ratioP1;P1;durP2;ratioP2;P2;SDS_P1;SDS_P2;PMS_P1;PMS_P2;Temp;Humidity;BMP_temperature;BMP_pressure;BME280_temperature;BME280_humidity;BME280_pressure;Samples;Min_cycle;Max_cycle;Signal;HPM_P1;HPM_P2
2022/01/25 00:26:17;;;;;;;25.25;14.30;;;1.10;99.90;;;;;;5007864;28;20088;-78
2022/01/25 00:29:02;;;;;;;27.90;14.80;;;1.20;99.90;;;;;;4999010;28;20066;-78
2022/01/25 00:31:27;;;;;;;22.73;13.05;;;1.20;99.90;;;;;;4996220;28;20057;-83
2022/01/25 00:33:54;;;;;;;27.95;15.40;;;1.20;99.90;;;;;;4998196;28;20061;-80
2022/01/25 00:36:24;;;;;;;27.98;15.77;;;1.20;99.90;;;;;;4999998;28;20046;-81
2022/01/25 00:38:50;;;;;;;26.80;15.20;;;1.20;99.90;;;;;;4999858;28;20026;-83
2022/01/25 00:41:17;;;;;;;32.08;16.35;;;1.20;99.90;;;;;;4998054;28;20053;-79
2022/01/25 00:43:44;;;;;;;28.80;16.27;;;1.10;99.90;;;;;;5001036;28;20061;-80
2022/01/25 00:46:12;;;;;;;30.00;16.75;;;1.10;99.90;;;;;;4999132;28;20030;-81
2022/01/25 00:52:20;;;;;;;29.52;15.27;;;1.00;99.90;;;;;;4997844;28;20034;-81
2022/01/25 00:54:13;;;;;;;32.97;16.77;;;0.90;99.90;;;;;;5003888;28;20057;-81
2022/01/25 00:56:43;;;;;;;29.10;15.90;;;1.00;99.90;;;;;;4997160;28;20026;-81
2022/01/25 00:59:19;;;;;;;27.33;15.10;;;1.10;99.90;;;;;;4997030;28;20036;-80
2022/01/25 01:01:47;;;;;;;31.90;16.23;;;1.10;99.90;;;;;;4997909;28;20077;-79
2022/01/25 01:04:13;;;;;;;33.85;17.42;;;1.10;99.90;;;;;;5001440;28;20018;-81
2022/01/25 01:06:42;;;;;;;40.95;19.48;;;1.10;99.90;;;;;;4997715;28;20108;-79
2022/01/25 01:09:09;;;;;;;31.08;17.25;;;1.00;99.90;;;;;;4996315;28;20034;-80
2022/01/25 01:12:12;;;;;;;29.40;15.55;;;1.00;99.90;;;;;;4998777;28;20344;-80
2022/01/25 01:14:55;;;;;;;31.23;16.35;;;1.00;99.90;;;;;;5002787;28;20042;-81
2022/01/25 01:31:34;;;;;;;28.95;13.25;;;1.10;99.90;;;;;;5000662;28;20077;-80
2022/01/25 01:34:43;;;;;;;27.75;13.32;;;1.10;99.90;;;;;;5001041;28;20023;-80
2022/01/25 01:39:58;;;;;;;27.33;14.20;;;1.20;99.90;;;;;;5016776;28;20073;-81
2022/01/25 01:43:13;;;;;;;27.85;15.27;;;1.10;99.90;;;;;;5016408;28;20061;-82
2022/01/25 01:45:30;;;;;;;25.83;14.02;;;1.10;99.90;;;;;;5007233;28;20061;-80
2022/01/25 01:48:01;;;;;;;27.95;14.32;;;1.10;99.90;;;;;;5001507;28;20034;-79
2022/01/25 01:50:31;;;;;;;27.90;14.45;;;1.00;99.90;;;;;;5000774;28;20022;-79
2022/01/25 01:52:57;;;;;;;26.00;12.85;;;1.00;99.90;;;;;;5005229;28;20026;-80
2022/01/25 01:55:25;;;;;;;27.33;14.93;;;1.00;99.90;;;;;;5007080;28;20053;-79
2022/01/25 01:57:51;;;;;;;29.08;15.15;;;1.00;99.90;;;;;;4997209;28;20027;-79
2022/01/25 02:00:21;;;;;;;29.42;15.23;;;1.10;99.90;;;;;;5000541;28;20030;-79
2022/01/25 02:02:47;;;;;;;31.77;15.80;;;1.10;99.90;;;;;;5001156;28;20023;-81
2022/01/25 02:05:12;;;;;;;35.17;16.73;;;1.10;99.90;;;;;;4998432;28;20019;-80
2022/01/25 02:07:38;;;;;;;26.55;13.73;;;1.10;99.90;;;;;;4999099;28;20126;-78
2022/01/25 02:10:06;;;;;;;27.95;15.02;;;1.00;99.90;;;;;;4997386;28;20023;-79
2022/01/25 02:12:33;;;;;;;27.00;13.25;;;1.10;99.90;;;;;;4999677;28;20258;-79
2022/01/25 02:15:01;;;;;;;28.83;14.55;;;1.20;99.90;;;;;;4999022;28;20459;-82
2022/01/25 02:23:19;;;;;;;30.63;16.08;;;1.20;99.90;;;;;;5005105;28;20152;-79
2022/01/25 02:25:46;;;;;;;29.83;14.27;;;1.20;99.90;;;;;;5006903;28;20089;-80
2022/01/25 02:28:12;;;;;;;39.67;17.85;;;1.20;99.90;;;;;;4999093;28;20036;-81
2022/01/25 02:30:38;;;;;;;35.22;16.58;;;1.30;99.90;;;;;;4998045;28;20113;-81
2022/01/25 02:33:04;;;;;;;35.38;18.48;;;1.20;99.90;;;;;;4998018;28;20033;-81
2022/01/25 02:35:30;;;;;;;33.85;17.50;;;1.20;99.90;;;;;;5020684;23;20038;-81
2022/01/25 02:37:56;;;;;;;30.73;15.30;;;1.10;99.90;;;;;;5023203;28;20252;-80
2022/01/25 02:40:21;;;;;;;32.05;16.38;;;1.10;99.90;;;;;;5012525;28;20057;-81
2022/01/25 02:42:47;;;;;;;32.75;16.38;;;1.10;99.90;;;;;;5013131;28;20042;-80
2022/01/25 02:45:16;;;;;;;29.65;14.50;;;1.20;99.90;;;;;;5014045;28;20026;-83
2022/01/25 02:48:43;;;;;;;29.33;14.52;;;1.20;99.90;;;;;;4995505;28;20026;-81
2022/01/25 02:50:38;;;;;;;28.30;13.50;;;1.20;99.90;;;;;;5009397;28;20038;-83
2022/01/25 02:53:04;;;;;;;27.63;14.20;;;1.30;99.90;;;;;;5018048;28;20030;-82
2022/01/25 02:55:30;;;;;;;30.08;15.05;;;1.30;99.90;;;;;;5000927;28;20030;-82
2022/01/25 02:57:56;;;;;;;31.23;14.77;;;1.30;99.90;;;;;;5017517;28;20058;-82
2022/01/25 03:00:22;;;;;;;30.35;15.40;;;1.30;99.90;;;;;;5017923;28;20050;-80
2022/01/25 03:02:48;;;;;;;30.48;16.02;;;1.30;99.90;;;;;;5017940;28;20030;-81
2022/01/25 03:05:14;;;;;;;31.08;15.38;;;1.20;99.90;;;;;;5016971;28;20058;-80
2022/01/25 03:07:40;;;;;;;29.45;14.90;;;1.10;99.90;;;;;;5019860;28;20064;-82
2022/01/25 03:10:06;;;;;;;32.70;14.23;;;1.10;99.90;;;;;;5036495;28;20044;-82
2022/01/25 03:12:40;;;;;;;24.65;13.55;;;1.10;99.90;;;;;;5037445;28;20025;-83
2022/01/25 03:15:41;;;;;;;28.00;13.80;;;1.10;99.90;;;;;;5037738;28;20021;-82
2022/01/25 03:18:00;;;;;;;28.35;13.93;;;1.20;99.90;;;;;;5036466;28;20010;-82
2022/01/25 03:23:21;;;;;;;28.45;13.63;;;1.20;99.90;;;;;;5036402;28;20056;-82
2022/01/25 03:25:48;;;;;;;31.25;14.07;;;1.20;99.90;;;;;;5033390;28;20034;-81
2022/01/25 03:28:15;;;;;;;28.80;14.48;;;1.10;99.90;;;;;;5031436;28;20045;-80
2022/01/25 03:30:41;;;;;;;31.50;15.18;;;1.00;99.90;;;;;;5031489;28;20045;-80
2022/01/25 03:33:07;;;;;;;27.58;13.27;;;0.90;99.90;;;;;;5028335;28;20056;-81
2022/01/25 03:35:33;;;;;;;29.42;14.20;;;0.80;99.90;;;;;;5028432;28;20025;-82
2022/01/25 03:37:59;;;;;;;32.53;14.65;;;0.80;99.90;;;;;;5027422;28;20022;-82
2022/01/25 03:40:25;;;;;;;27.38;14.05;;;0.70;99.90;;;;;;5034041;28;20082;-82
2022/01/25 03:42:51;;;;;;;25.98;14.30;;;0.70;99.90;;;;;;5028678;28;20034;-79
2022/01/25 03:45:20;;;;;;;26.98;13.40;;;0.80;99.90;;;;;;5031119;28;20049;-81
2022/01/25 03:50:32;;;;;;;26.30;12.30;;;0.90;99.90;;;;;;5007108;28;20057;-80
2022/01/25 03:52:58;;;;;;;27.77;12.70;;;0.90;99.90;;;;;;5028768;28;20145;-80
2022/01/25 03:55:24;;;;;;;25.50;12.45;;;0.90;99.90;;;;;;5030657;28;20030;-79
2022/01/25 03:57:50;;;;;;;24.05;11.75;;;0.90;99.90;;;;;;5028096;28;20030;-80
2022/01/25 04:00:17;;;;;;;23.27;11.52;;;0.90;99.90;;;;;;5028509;28;20026;-80
2022/01/25 04:02:51;;;;;;;23.73;11.30;;;0.90;99.90;;;;;;5027935;28;20029;-80
2022/01/25 04:05:24;;;;;;;25.75;12.27;;;1.00;99.90;;;;;;5039828;28;20046;-81
2022/01/25 04:07:52;;;;;;;;;;;0.90;99.90;;;;;;5049432;28;20156;-81
2022/01/25 04:10:18;;;;;;;29.08;13.48;;;0.80;99.90;;;;;;5047979;28;19919;-80
2022/01/25 04:12:46;;;;;;;29.70;12.93;;;0.70;99.90;;;;;;5048456;28;20037;-81
2022/01/25 04:15:12;;;;;;;27.20;12.48;;;0.70;99.90;;;;;;5048115;28;20048;-82
2022/01/25 04:17:39;;;;;;;30.50;13.73;;;0.70;99.90;;;;;;5030947;28;20009;-82
2022/01/25 04:20:15;;;;;;;31.75;14.60;;;0.80;99.90;;;;;;5048450;28;20044;-82
2022/01/25 04:25:25;;;;;;;30.30;14.02;;;0.70;99.90;;;;;;5047979;28;20053;-81
2022/01/25 04:27:51;;;;;;;25.83;13.23;;;0.80;99.90;;;;;;5029460;28;20025;-81
2022/01/25 04:30:17;;;;;;;35.40;16.15;;;0.90;99.90;;;;;;5046847;28;20256;-80
2022/01/25 04:32:47;;;;;;;31.80;14.07;;;0.90;99.90;;;;;;5029364;28;20060;-80
2022/01/25 04:54:10;;;;;;;23.73;10.93;;;1.00;99.90;;;;;;5052102;28;20052;-82
2022/01/25 04:56:50;;;;;;;25.33;13.00;;;0.90;99.90;;;;;;5050680;28;20026;-83
2022/01/25 05:02:07;;;;;;;26.73;12.68;;;0.70;99.90;;;;;;5048628;28;20040;-81
2022/01/25 05:04:39;;;;;;;;;;;0.50;99.90;;;;;;5031152;28;20028;-81
2022/01/25 05:07:25;;;;;;;22.38;10.88;;;0.40;99.90;;;;;;5040730;28;20435;-81
2022/01/25 05:09:52;;;;;;;25.05;11.70;;;0.40;99.90;;;;;;5009209;28;20085;-81
2022/01/25 05:12:28;;;;;;;27.98;12.52;;;0.40;99.90;;;;;;5007864;28;20117;-81
2022/01/25 05:15:01;;;;;;;23.20;12.15;;;0.30;99.90;;;;;;5008517;28;20042;-81
2022/01/25 05:17:43;;;;;;;23.98;11.40;;;0.20;99.90;;;;;;5009229;28;20018;-81
2022/01/25 05:22:53;;;;;;;22.15;10.27;;;0.00;99.90;;;;;;5013776;28;20088;-81
2022/01/25 05:25:18;;;;;;;24.15;11.32;;;0.10;99.90;;;;;;5009530;28;20035;-81
2022/01/25 05:27:44;;;;;;;25.63;11.95;;;0.20;99.90;;;;;;5008140;28;20038;-82
2022/01/25 05:30:11;;;;;;;20.80;9.45;;;0.20;99.90;;;;;;5009053;28;20019;-81
2022/01/25 05:32:36;;;;;;;22.75;10.45;;;0.10;99.90;;;;;;5008073;28;20030;-81
2022/01/25 05:35:03;;;;;;;20.67;9.57;;;0.10;99.90;;;;;;5017249;28;20037;-81
2022/01/25 05:37:32;;;;;;;18.27;8.85;;;0.20;99.90;;;;;;5018200;28;20026;-81
2022/01/25 05:40:00;;;;;;;23.85;10.60;;;0.20;99.90;;;;;;5022271;28;20113;-81
2022/01/25 05:45:17;;;;;;;17.50;8.33;;;0.10;99.90;;;;;;5023944;28;20022;-81
2022/01/25 05:47:44;;;;;;;23.42;10.45;;;0.10;99.90;;;;;;5023141;28;20026;-80
2022/01/25 05:50:12;;;;;;;23.42;10.77;;;0.00;99.90;;;;;;5023993;28;20030;-80
2022/01/25 05:52:39;;;;;;;22.13;10.20;;;0.00;99.90;;;;;;5023071;28;20022;-81
2022/01/25 05:55:05;;;;;;;20.50;9.73;;;0.00;99.90;;;;;;5025962;28;20025;-80
2022/01/25 05:57:31;;;;;;;24.70;10.50;;;0.10;99.90;;;;;;5022853;28;20414;-81
2022/01/25 05:59:57;;;;;;;21.80;9.55;;;0.10;99.90;;;;;;5021879;28;20030;-80
2022/01/25 06:02:26;;;;;;;26.27;10.15;;;0.10;99.90;;;;;;5021765;28;20423;-80
2022/01/25 06:04:53;;;;;;;17.48;8.77;;;0.20;99.90;;;;;;5021155;28;20075;-79
2022/01/25 06:07:19;;;;;;;20.80;10.07;;;0.20;99.90;;;;;;5010295;28;20041;-80
2022/01/25 06:09:47;;;;;;;25.92;9.80;;;0.20;99.90;;;;;;5018202;28;20034;-80
2022/01/25 06:12:13;;;;;;;23.48;10.40;;;0.30;99.90;;;;;;5020653;28;20022;-79
2022/01/25 06:14:39;;;;;;;23.60;10.60;;;0.30;99.90;;;;;;5020093;28;20069;-80
2022/01/25 06:17:05;;;;;;;28.00;11.23;;;0.20;99.90;;;;;;5020230;28;20064;-79
2022/01/25 06:19:31;;;;;;;18.52;9.27;;;0.20;99.90;;;;;;5019762;28;20030;-79
2022/01/25 06:21:57;;;;;;;24.92;10.82;;;0.20;99.90;;;;;;5017802;28;20068;-78
2022/01/25 06:24:22;;;;;;;22.98;10.93;;;0.10;99.90;;;;;;5018772;28;20096;-81
2022/01/25 06:26:48;;;;;;;24.90;11.55;;;0.10;99.90;;;;;;5019999;28;20085;-80
2022/01/25 06:29:17;;;;;;;24.42;10.68;;;0.10;99.90;;;;;;5021887;28;20034;-83
2022/01/25 06:31:44;;;;;;;25.70;11.57;;;0.10;99.90;;;;;;4997150;28;20049;-83
2022/01/25 06:34:10;;;;;;;23.08;10.80;;;0.10;99.90;;;;;;5025444;28;20106;-83
2022/01/25 06:36:35;;;;;;;26.23;10.40;;;0.10;99.90;;;;;;5029519;28;20034;-83
2022/01/25 06:39:01;;;;;;;27.30;12.45;;;0.00;99.90;;;;;;5028102;28;20026;-84
2022/01/25 06:41:27;;;;;;;22.73;10.25;;;0.00;99.90;;;;;;5024717;28;20037;-83
2022/01/25 06:43:53;;;;;;;24.15;11.15;;;0.00;99.90;;;;;;5029445;28;20022;-83
2022/01/25 06:46:19;;;;;;;23.00;10.57;;;0.00;99.90;;;;;;5032744;28;20030;-83
2022/01/25 06:48:44;;;;;;;25.40;11.00;;;0.10;99.90;;;;;;5033335;28;20057;-82
2022/01/25 06:51:10;;;;;;;24.35;11.77;;;0.10;99.90;;;;;;5033242;28;20025;-82
2022/01/25 06:53:36;;;;;;;24.00;10.43;;;0.10;99.90;;;;;;5036473;28;20550;-83
2022/01/25 06:56:04;;;;;;;19.98;10.23;;;0.10;99.90;;;;;;5037761;28;20034;-83
2022/01/25 06:58:30;;;;;;;20.80;9.60;;;0.00;99.90;;;;;;5034428;28;20018;-84
2022/01/25 07:00:56;;;;;;;24.15;11.35;;;-0.10;99.90;;;;;;5033820;28;20021;-83
2022/01/25 07:03:22;;;;;;;25.00;10.48;;;-0.20;99.90;;;;;;5036010;28;20034;-83
2022/01/25 07:05:48;;;;;;;22.38;10.75;;;-0.20;99.90;;;;;;5034724;28;20022;-83
2022/01/25 07:08:14;;;;;;;26.83;10.13;;;-0.30;99.90;;;;;;5028106;28;20030;-83
2022/01/25 07:10:39;;;;;;;23.52;11.45;;;-0.20;99.90;;;;;;5023156;28;20026;-80
2022/01/25 07:13:05;;;;;;;20.95;10.27;;;-0.20;99.90;;;;;;5022930;28;20033;-80
2022/01/25 07:15:31;;;;;;;24.70;10.98;;;-0.20;99.90;;;;;;5025323;28;20117;-79
2022/01/25 07:17:57;;;;;;;25.75;11.50;;;-0.10;99.90;;;;;;5026171;28;20026;-80
2022/01/25 07:20:23;;;;;;;23.85;12.10;;;0.00;99.90;;;;;;5025814;28;20033;-79
2022/01/25 07:22:49;;;;;;;26.38;11.43;;;0.10;99.90;;;;;;5026277;28;20029;-80
2022/01/25 07:25:15;;;;;;;20.92;10.07;;;0.10;99.90;;;;;;5024967;28;20056;-80
2022/01/25 07:27:41;;;;;;;24.45;11.98;;;0.20;99.90;;;;;;5023839;28;20045;-80
2022/01/25 07:30:07;;;;;;;22.73;11.15;;;0.20;99.90;;;;;;5021029;28;20045;-80
2022/01/25 07:32:33;;;;;;;24.58;11.63;;;0.20;99.90;;;;;;5020183;28;20025;-81
2022/01/25 07:34:59;;;;;;;27.15;12.88;;;0.20;99.90;;;;;;5021917;28;20110;-80
2022/01/25 07:37:25;;;;;;;33.25;14.15;;;0.20;99.90;;;;;;5023198;28;20021;-82
2022/01/25 07:39:51;;;;;;;32.60;14.15;;;0.20;99.90;;;;;;5022221;28;20034;-79
2022/01/25 07:42:18;;;;;;;29.27;13.32;;;0.20;99.90;;;;;;5006101;28;20489;-80
2022/01/25 07:44:44;;;;;;;30.17;15.05;;;0.20;99.90;;;;;;5023887;28;20095;-81
2022/01/25 07:47:12;;;;;;;30.63;14.07;;;0.20;99.90;;;;;;5006488;28;20018;-80
2022/01/25 07:49:38;;;;;;;25.23;12.45;;;0.30;99.90;;;;;;5023439;28;20033;-80
2022/01/25 07:52:05;;;;;;;26.27;13.48;;;0.40;99.90;;;;;;5023830;28;20029;-80
2022/01/25 07:54:31;;;;;;;27.35;14.10;;;0.40;99.90;;;;;;5024720;28;20045;-81
2022/01/25 07:56:57;;;;;;;38.13;15.88;;;0.50;99.90;;;;;;5024389;28;20018;-80
2022/01/25 07:59:23;;;;;;;35.33;15.82;;;0.50;99.90;;;;;;5025184;28;20045;-80
2022/01/25 08:01:49;;;;;;;29.08;13.82;;;0.60;99.90;;;;;;5023666;28;20029;-80
2022/01/25 08:04:15;;;;;;;32.63;15.75;;;0.60;99.90;;;;;;5022745;28;20113;-79
2022/01/25 08:06:42;;;;;;;32.92;15.50;;;0.70;99.90;;;;;;5022326;28;20499;-80
2022/01/25 08:09:09;;;;;;;37.90;16.90;;;0.70;99.90;;;;;;5024198;28;20022;-79
2022/01/25 08:11:35;;;;;;;28.58;14.75;;;0.70;99.90;;;;;;5005881;28;20026;-80
2022/01/25 08:14:12;;;;;;;28.63;15.50;;;0.70;99.90;;;;;;5024456;28;20030;-80
2022/01/25 08:16:51;;;;;;;32.15;16.40;;;0.70;99.90;;;;;;5026635;28;20487;-81
2022/01/25 08:19:18;;;;;;;33.33;15.32;;;0.80;99.90;;;;;;5024185;28;20068;-83
2022/01/25 08:21:44;;;;;;;27.85;13.63;;;0.90;99.90;;;;;;5028853;28;20073;-82
2022/01/25 08:24:11;;;;;;;27.45;13.98;;;1.10;99.90;;;;;;5030645;28;20045;-82
2022/01/25 08:26:37;;;;;;;32.95;16.00;;;1.20;99.90;;;;;;5030071;28;20057;-82
2022/01/25 08:29:04;;;;;;;33.35;16.27;;;1.30;99.90;;;;;;5012874;28;20033;-82
2022/01/25 08:31:30;;;;;;;34.47;16.80;;;1.30;99.90;;;;;;5030227;28;20090;-81
2022/01/25 08:33:57;;;;;;;33.60;16.98;;;1.30;99.90;;;;;;5029222;28;20034;-81
2022/01/25 08:36:24;;;;;;;33.80;17.67;;;1.20;99.90;;;;;;5028598;28;20094;-82
2022/01/25 08:38:50;;;;;;;31.27;15.77;;;1.30;99.90;;;;;;5030264;28;20025;-82
2022/01/25 08:41:17;;;;;;;29.85;15.05;;;1.20;99.90;;;;;;5029864;28;20032;-82
2022/01/25 08:43:43;;;;;;;27.30;15.23;;;1.30;99.90;;;;;;5030026;28;20029;-81
2022/01/25 08:46:08;;;;;;;25.67;13.40;;;1.40;99.90;;;;;;5035788;28;20021;-83
2022/01/25 08:48:34;;;;;;;29.55;13.88;;;1.60;99.90;;;;;;5031754;28;20040;-83
2022/01/25 08:51:01;;;;;;;27.92;14.63;;;1.80;99.90;;;;;;5029842;28;20458;-83
2022/01/25 08:53:27;;;;;;;25.45;14.20;;;1.90;99.90;;;;;;5030882;28;20022;-83
2022/01/25 08:55:53;;;;;;;23.25;14.25;;;2.00;99.90;;;;;;5029141;28;20029;-83
2022/01/25 08:58:19;;;;;;;28.50;14.95;;;2.00;99.90;;;;;;5027869;28;20474;-82
2022/01/25 09:00:45;;;;;;;25.60;14.60;;;2.10;99.90;;;;;;5028333;28;20449;-82
2022/01/25 09:03:12;;;;;;;24.90;13.70;;;2.00;99.90;;;;;;5027745;28;20026;-83
2022/01/25 09:05:38;;;;;;;24.52;13.02;;;2.10;99.90;;;;;;5024425;28;20398;-83
2022/01/25 09:08:05;;;;;;;25.67;14.55;;;2.20;99.90;;;;;;5029206;28;20022;-84
2022/01/25 09:10:32;;;;;;;28.73;16.80;;;2.20;99.50;;;;;;5026617;28;20037;-83
2022/01/25 09:12:58;;;;;;;30.73;18.88;;;2.10;98.30;;;;;;5029358;28;20024;-83
2022/01/25 09:15:24;;;;;;;26.10;16.30;;;2.10;98.50;;;;;;5028857;28;20692;-82
2022/01/25 09:17:50;;;;;;;31.33;15.88;;;1.90;98.80;;;;;;5043367;28;20046;-82
2022/01/25 09:20:29;;;;;;;29.42;15.93;;;1.80;99.40;;;;;;5012176;28;20029;-82
2022/01/25 09:22:56;;;;;;;29.52;14.85;;;1.70;99.80;;;;;;5010124;28;20037;-82
2022/01/25 09:25:22;;;;;;;29.35;15.23;;;1.90;99.90;;;;;;5026762;28;20049;-82
2022/01/25 09:27:48;;;;;;;29.30;15.20;;;2.20;99.90;;;;;;5008630;28;20025;-82
2022/01/25 09:30:14;;;;;;;30.38;16.13;;;2.40;99.50;;;;;;5007501;28;20037;-83
2022/01/25 09:32:40;;;;;;;29.55;15.32;;;2.50;99.10;;;;;;5025023;28;20050;-81
2022/01/25 09:35:06;;;;;;;29.15;15.73;;;2.60;97.60;;;;;;5025706;28;20080;-84
2022/01/25 09:37:32;;;;;;;27.55;16.25;;;2.40;97.10;;;;;;5035177;28;20021;-83
2022/01/25 09:39:58;;;;;;;30.88;17.10;;;2.30;97.80;;;;;;5028516;28;20030;-82
2022/01/25 09:42:28;;;;;;;26.80;15.95;;;2.30;98.00;;;;;;5028658;28;20026;-82
2022/01/25 09:44:55;;;;;;;25.83;15.35;;;2.30;98.00;;;;;;5029092;28;20022;-83
2022/01/25 09:47:21;;;;;;;26.40;15.20;;;2.30;98.10;;;;;;5029648;28;20126;-83
2022/01/25 09:49:46;;;;;;;26.65;14.15;;;2.30;97.80;;;;;;5029248;28;20022;-83
2022/01/25 09:52:12;;;;;;;28.58;14.95;;;2.40;98.20;;;;;;5029608;28;20517;-82
2022/01/25 09:54:38;;;;;;;27.58;15.50;;;2.70;97.70;;;;;;5028386;28;20044;-81
2022/01/25 09:57:05;;;;;;;27.95;15.23;;;3.20;97.10;;;;;;5028057;28;20049;-83
2022/01/25 09:59:31;;;;;;;27.48;15.43;;;3.50;96.50;;;;;;5029374;28;20066;-82
2022/01/25 10:01:57;;;;;;;23.95;14.15;;;3.50;95.80;;;;;;5028519;28;20036;-83
2022/01/25 10:04:39;;;;;;;29.00;15.30;;;3.40;95.50;;;;;;5027118;28;20041;-84
2022/01/25 10:07:05;;;;;;;25.60;14.23;;;3.50;95.50;;;;;;5029834;28;20026;-83
2022/01/25 10:09:40;;;;;;;23.00;13.38;;;3.60;95.60;;;;;;5012736;28;20342;-83
2022/01/25 10:12:21;;;;;;;24.02;14.23;;;3.70;95.60;;;;;;5019817;28;20026;-82
2022/01/25 10:15:14;;;;;;;26.88;14.98;;;3.80;94.60;;;;;;5010584;28;20089;-82
2022/01/25 10:17:43;;;;;;;26.48;14.48;;;3.90;94.60;;;;;;5024996;28;20072;-82
2022/01/25 10:20:27;;;;;;;27.02;13.85;;;3.90;94.40;;;;;;5009137;28;20030;-83
2022/01/25 10:22:59;;;;;;;20.58;12.30;;;4.00;94.10;;;;;;5007907;28;20407;-82
2022/01/25 10:25:39;;;;;;;18.98;11.75;;;4.10;94.30;;;;;;5025709;28;20030;-83
2022/01/25 10:28:13;;;;;;;17.77;12.05;;;4.20;94.00;;;;;;5014881;28;20037;-83
2022/01/25 10:30:45;;;;;;;24.40;14.00;;;4.30;94.00;;;;;;5006341;28;20109;-81
2022/01/25 10:33:21;;;;;;;25.20;15.52;;;4.40;93.70;;;;;;5032869;28;20048;-81
2022/01/25 10:35:48;;;;;;;20.38;12.48;;;4.40;93.50;;;;;;5034598;28;20041;-82
2022/01/25 10:38:22;;;;;;;21.00;12.65;;;4.50;93.30;;;;;;5029347;28;20077;-81
2022/01/25 10:41:03;;;;;;;21.30;12.88;;;4.50;92.90;;;;;;5028616;28;20026;-82
2022/01/25 10:43:31;;;;;;;23.02;13.15;;;4.70;92.90;;;;;;5027960;28;20030;-82
2022/01/25 10:46:30;;;;;;;22.65;13.73;;;4.80;92.20;;;;;;5028401;28;20018;-83
2022/01/25 10:49:07;;;;;;;21.10;12.50;;;4.90;92.30;;;;;;5029358;28;20008;-83
2022/01/25 10:52:02;;;;;;;19.98;12.10;;;5.00;92.10;;;;;;5030276;28;20090;-82
2022/01/25 10:54:28;;;;;;;20.33;11.52;;;5.10;92.00;;;;;;5008802;28;20101;-82
2022/01/25 10:56:59;;;;;;;16.83;10.55;;;5.20;91.00;;;;;;5028342;28;20026;-82
2022/01/25 10:59:36;;;;;;;16.27;9.50;;;5.10;90.90;;;;;;5030460;28;20029;-83
2022/01/25 11:02:06;;;;;;;21.85;11.93;;;5.10;91.50;;;;;;5028706;28;20029;-82
2022/01/25 11:04:38;;;;;;;19.50;11.55;;;5.10;90.80;;;;;;5028704;28;20632;-82
2022/01/25 11:07:09;;;;;;;17.00;10.65;;;5.10;91.20;;;;;;5028916;28;20029;-82
2022/01/25 11:09:43;;;;;;;18.05;10.70;;;5.20;91.30;;;;;;5029079;28;20188;-82
2022/01/25 11:12:13;;;;;;;17.25;9.75;;;5.30;91.30;;;;;;5013004;28;20036;-82
2022/01/25 11:14:57;;;;;;;16.55;9.32;;;5.30;91.10;;;;;;5029320;28;20021;-83
2022/01/25 11:17:29;;;;;;;14.35;9.07;;;5.20;91.30;;;;;;5029030;28;20091;-82
2022/01/25 11:19:57;;;;;;;13.52;7.85;;;5.30;91.20;;;;;;5028757;28;20026;-84
2022/01/25 11:22:23;;;;;;;12.48;8.52;;;5.40;91.40;;;;;;5007233;28;20057;-81
2022/01/25 11:24:52;;;;;;;13.63;8.18;;;5.50;91.10;;;;;;5035173;28;20022;-81
2022/01/25 11:27:22;;;;;;;12.43;8.05;;;5.60;91.10;;;;;;5027305;28;20048;-82
2022/01/25 13:05:46;;;;;;;15.90;7.95;;;6.60;86.30;;;;;;5023960;28;20049;-88
2022/01/25 13:08:19;;;;;;;18.40;10.07;;;6.70;85.70;;;;;;5029453;28;20018;-89
2022/01/25 13:10:45;;;;;;;16.15;10.30;;;6.80;84.30;;;;;;5029934;28;20516;-88
2022/01/25 13:13:28;;;;;;;13.68;9.30;;;6.80;83.90;;;;;;5028759;28;20041;-89
2022/01/25 13:15:56;;;;;;;16.45;9.25;;;6.80;84.00;;;;;;5011083;28;20050;-88
2022/01/25 13:18:25;;;;;;;12.95;8.30;;;6.70;84.60;;;;;;5029058;28;20078;-89
2022/01/25 13:21:01;;;;;;;18.50;9.02;;;6.60;84.70;;;;;;5029042;28;20052;-88
2022/01/25 13:23:27;;;;;;;13.00;8.77;;;6.70;85.10;;;;;;5011691;28;20086;-88
2022/01/25 13:26:08;;;;;;;15.23;8.52;;;6.70;84.10;;;;;;5011989;28;20045;-88
2022/01/25 13:31:05;;;;;;;19.08;10.20;;;6.70;85.50;;;;;;5029286;28;20048;-88
2022/01/25 13:33:31;;;;;;;18.38;10.32;;;6.70;85.10;;;;;;5010926;28;20026;-88
2022/01/25 13:35:57;;;;;;;19.77;11.52;;;6.60;85.30;;;;;;4991862;28;20077;-88
2022/01/25 13:38:30;;;;;;;19.80;11.95;;;6.60;85.20;;;;;;5014021;28;20034;-89
2022/01/25 13:46:26;;;;;;;16.25;11.10;;;6.40;86.30;;;;;;5008200;28;20061;-88
2022/01/25 13:48:54;;;;;;;20.10;12.23;;;6.30;86.60;;;;;;5015886;28;20026;-89
2022/01/25 13:51:26;;;;;;;19.88;13.07;;;6.30;86.20;;;;;;5034683;28;20086;-88
2022/01/25 13:53:57;;;;;;;16.60;11.07;;;6.40;86.00;;;;;;5029561;28;20050;-88
2022/01/25 13:56:33;;;;;;;18.90;12.25;;;6.40;85.70;;;;;;5029934;28;20030;-88
2022/01/25 13:59:00;;;;;;;21.33;12.38;;;6.30;86.30;;;;;;5015514;28;20026;-88
2022/01/25 14:01:28;;;;;;;21.30;12.45;;;6.20;86.50;;;;;;4995226;28;20106;-88
2022/01/25 14:04:08;;;;;;;23.05;14.88;;;6.00;87.50;;;;;;5009996;28;20007;-87
2022/01/25 14:06:41;;;;;;;18.55;12.95;;;5.90;88.20;;;;;;5007907;28;20030;-88
2022/01/25 14:09:14;;;;;;;21.55;12.32;;;5.80;88.80;;;;;;5010885;28;20023;-88
2022/01/25 14:25:11;;;;;;;21.02;12.10;;;5.70;87.80;;;;;;5028132;28;20050;-89
2022/01/25 14:27:51;;;;;;;19.33;13.05;;;5.70;87.80;;;;;;5028042;28;20025;-89
2022/01/25 14:30:19;;;;;;;17.35;10.65;;;5.60;88.60;;;;;;5007554;28;20041;-89
2022/01/25 14:32:59;;;;;;;20.85;12.57;;;5.60;89.00;;;;;;5007223;28;20034;-89
2022/01/25 14:35:24;;;;;;;18.38;11.95;;;5.50;88.40;;;;;;5012958;28;20042;-88
2022/01/25 14:37:50;;;;;;;20.00;12.38;;;5.40;88.40;;;;;;5018265;28;20034;-88
2022/01/25 14:40:17;;;;;;;20.92;12.43;;;5.30;89.10;;;;;;5009994;28;20033;-89
2022/01/25 14:42:46;;;;;;;19.67;12.05;;;5.20;90.00;;;;;;5008291;28;20072;-89
2022/01/25 14:45:20;;;;;;;20.85;11.70;;;5.10;90.30;;;;;;5025977;28;20113;-89
2022/01/25 14:47:53;;;;;;;20.52;12.30;;;5.00;90.70;;;;;;5007839;28;20026;-88
2022/01/25 14:50:24;;;;;;;25.08;13.95;;;4.90;91.30;;;;;;5024205;28;20018;-88
2022/01/25 14:53:10;;;;;;;20.83;13.07;;;4.80;91.80;;;;;;5008202;28;20060;-88
2022/01/25 14:55:39;;;;;;;20.10;12.85;;;4.70;92.20;;;;;;5028329;28;20013;-89
2022/01/25 15:00:46;;;;;;;19.15;13.25;;;4.50;92.80;;;;;;5019258;28;20033;-87
2022/01/25 15:03:12;;;;;;;26.77;16.33;;;4.30;93.20;;;;;;5010459;28;20026;-88
2022/01/25 15:05:38;;;;;;;28.70;16.80;;;4.20;93.70;;;;;;5008038;28;20474;-88
2022/01/25 15:08:04;;;;;;;27.35;16.02;;;4.00;94.20;;;;;;5006824;28;20046;-88
2022/01/25 15:10:32;;;;;;;26.48;15.60;;;3.90;94.70;;;;;;5009914;28;20029;-88
2022/01/25 15:12:58;;;;;;;23.33;14.57;;;3.80;95.20;;;;;;5028382;28;20085;-88
2022/01/25 15:15:34;;;;;;;26.02;15.90;;;3.70;95.50;;;;;;5026305;28;20030;-87
2022/01/25 15:18:00;;;;;;;27.85;17.08;;;3.60;95.80;;;;;;5009394;28;20033;-88
2022/01/25 15:20:25;;;;;;;29.50;17.52;;;3.40;96.10;;;;;;5010952;28;20089;-88
2022/01/25 15:22:51;;;;;;;25.80;15.82;;;3.30;96.60;;;;;;5028049;28;20037;-88
2022/01/25 15:25:23;;;;;;;29.17;18.13;;;3.20;97.00;;;;;;5010503;28;20076;-89
2022/01/25 15:27:51;;;;;;;24.67;14.52;;;3.10;97.40;;;;;;5027928;28;20025;-89
2022/01/25 15:30:19;;;;;;;26.70;16.20;;;3.10;97.70;;;;;;5019619;28;20110;-89
2022/01/25 15:32:45;;;;;;;28.90;16.85;;;3.00;98.10;;;;;;5011700;28;20030;-89
2022/01/25 15:35:11;;;;;;;30.55;17.17;;;2.90;98.50;;;;;;5004710;28;20169;-89
2022/01/25 15:37:37;;;;;;;31.33;17.73;;;2.80;98.80;;;;;;5006290;28;20431;-88
2022/01/25 15:40:04;;;;;;;25.55;15.98;;;2.80;99.20;;;;;;4988256;28;20034;-86
2022/01/25 15:42:32;;;;;;;33.45;19.05;;;2.70;99.40;;;;;;4987529;28;20022;-86
2022/01/25 15:44:58;;;;;;;34.58;17.88;;;2.70;99.80;;;;;;4994966;28;20053;-90
2022/01/25 15:47:29;;;;;;;33.08;18.10;;;2.60;99.90;;;;;;4995733;28;20030;-86
2022/01/25 15:49:55;;;;;;;30.27;17.67;;;2.60;99.90;;;;;;4996840;28;20220;-85
2022/01/25 15:52:21;;;;;;;33.33;18.38;;;2.50;99.90;;;;;;5015675;28;20026;-88
2022/01/25 15:54:46;;;;;;;33.15;19.55;;;2.40;99.90;;;;;;5019040;28;20018;-89
2022/01/25 15:57:13;;;;;;;36.28;18.70;;;2.30;99.90;;;;;;5035739;28;20517;-88
2022/01/25 15:59:39;;;;;;;35.03;18.67;;;2.30;99.90;;;;;;5036534;28;20033;-90
2022/01/25 16:02:12;;;;;;;45.00;23.23;;;2.20;99.90;;;;;;5021094;28;20025;-90
2022/01/25 16:04:41;;;;;;;38.67;20.77;;;2.10;99.90;;;;;;5016195;28;20022;-90
2022/01/25 16:07:14;;;;;;;37.28;19.45;;;2.00;99.90;;;;;;5016776;28;20100;-90
2022/01/25 16:09:43;;;;;;;40.80;21.98;;;1.80;99.90;;;;;;5012189;28;20050;-90
2022/01/25 16:12:12;;;;;;;41.40;21.73;;;1.80;99.90;;;;;;5003129;28;20034;-89
2022/01/25 16:14:43;;;;;;;36.78;19.70;;;1.70;99.90;;;;;;5005775;28;20022;-87